sensor_id;sensor_type;location;lat;lon;timestamp;pressure;altitude;pressure_sealevel;temperature;humidity
59951;BME280;45812;53.540;9.774;2023-04-28T00:01:41;101859.75;;;6.96;87.36
59951;BME280;45812;53.540;9.774;2023-04-28T00:04:06;101860.13;;;6.92;87.34
59951;BME280;45812;53.540;9.774;2023-04-28T00:06:31;101857.78;;;6.87;86.81
59951;BME280;45812;53.540;9.774;2023-04-28T00:08:57;101853.78;;;6.82;87.16
59951;BME280;45812;53.540;9.774;2023-04-28T00:11:22;101854.97;;;6.78;87.38
59951;BME280;45812;53.540;9.774;2023-04-28T00:13:47;101850.03;;;6.73;87.82
59951;BME280;45812;53.540;9.774;2023-04-28T00:16:12;101846.78;;;6.70;88.21
59951;BME280;45812;53.540;9.774;2023-04-28T00:18:38;101846.97;;;6.66;88.89
59951;BME280;45812;53.540;9.774;2023-04-28T00:21:03;101844.44;;;6.65;89.08
59951;BME280;45812;53.540;9.774;2023-04-28T00:23:28;101838.41;;;6.63;89.23
59951;BME280;45812;53.540;9.774;2023-04-28T00:25:54;101846.47;;;6.61;89.25
59951;BME280;45812;53.540;9.774;2023-04-28T00:28:21;101831.66;;;6.59;89.26
59951;BME280;45812;53.540;9.774;2023-04-28T00:30:46;101836.13;;;6.58;89.66
59951;BME280;45812;53.540;9.774;2023-04-28T00:33:12;101843.31;;;6.56;89.65
59951;BME280;45812;53.540;9.774;2023-04-28T00:35:38;101821.66;;;6.51;89.08
59951;BME280;45812;53.540;9.774;2023-04-28T00:38:03;101838.69;;;6.47;88.74
59951;BME280;45812;53.540;9.774;2023-04-28T00:40:33;101822.31;;;6.42;88.47
59951;BME280;45812;53.540;9.774;2023-04-28T00:42:58;101825.19;;;6.39;88.94
59951;BME280;45812;53.540;9.774;2023-04-28T00:45:23;101819.28;;;6.35;89.48
59951;BME280;45812;53.540;9.774;2023-04-28T00:47:48;101827.31;;;6.34;89.62
59951;BME280;45812;53.540;9.774;2023-04-28T00:50:15;101815.06;;;6.33;89.63
59951;BME280;45812;53.540;9.774;2023-04-28T00:52:41;101812.50;;;6.31;89.88
59951;BME280;45812;53.540;9.774;2023-04-28T00:55:08;101802.88;;;6.30;90.23
59951;BME280;45812;53.540;9.774;2023-04-28T00:57:33;101802.13;;;6.28;90.50
59951;BME280;45812;53.540;9.774;2023-04-28T00:59:59;101811.13;;;6.26;90.68
59951;BME280;45812;53.540;9.774;2023-04-28T01:02:25;101803.22;;;6.26;90.84
59951;BME280;45812;53.540;9.774;2023-04-28T01:04:51;101809.56;;;6.23;90.83
59951;BME280;45812;53.540;9.774;2023-04-28T01:07:16;101808.72;;;6.23;90.86
59951;BME280;45812;53.540;9.774;2023-04-28T01:09:42;101803.66;;;6.20;91.34
59951;BME280;45812;53.540;9.774;2023-04-28T01:12:08;101808.09;;;6.19;91.55
59951;BME280;45812;53.540;9.774;2023-04-28T01:14:33;101800.16;;;6.19;91.86
59951;BME280;45812;53.540;9.774;2023-04-28T01:16:58;101798.47;;;6.18;92.00
59951;BME280;45812;53.540;9.774;2023-04-28T01:19:24;101794.16;;;6.17;92.12
59951;BME280;45812;53.540;9.774;2023-04-28T01:21:50;101802.19;;;6.16;92.32
59951;BME280;45812;53.540;9.774;2023-04-28T01:24:15;101794.69;;;6.10;92.73
59951;BME280;45812;53.540;9.774;2023-04-28T01:26:41;101799.84;;;6.11;92.69
59951;BME280;45812;53.540;9.774;2023-04-28T01:29:06;101794.78;;;6.08;92.55
59951;BME280;45812;53.540;9.774;2023-04-28T01:31:31;101793.09;;;6.07;92.96
59951;BME280;45812;53.540;9.774;2023-04-28T01:33:57;101792.25;;;6.06;92.93
59951;BME280;45812;53.540;9.774;2023-04-28T01:36:22;101787.19;;;6.03;92.48
59951;BME280;45812;53.540;9.774;2023-04-28T01:38:48;101788.16;;;6.02;92.93
59951;BME280;45812;53.540;9.774;2023-04-28T01:41:14;101789.09;;;6.01;92.94
59951;BME280;45812;53.540;9.774;2023-04-28T01:43:39;101779.59;;;5.99;93.35
59951;BME280;45812;53.540;9.774;2023-04-28T01:46:04;101780.44;;;5.99;93.28
59951;BME280;45812;53.540;9.774;2023-04-28T01:48:30;101783.31;;;5.96;93.50
59951;BME280;45812;53.540;9.774;2023-04-28T01:50:55;101785.19;;;5.94;93.53
59951;BME280;45812;53.540;9.774;2023-04-28T01:53:21;101785.31;;;5.93;93.68
59951;BME280;45812;53.540;9.774;2023-04-28T01:55:46;101781.09;;;5.90;93.73
59951;BME280;45812;53.540;9.774;2023-04-28T01:58:12;101772.41;;;5.88;93.92
59951;BME280;45812;53.540;9.774;2023-04-28T02:00:37;101769.88;;;5.87;94.00
59951;BME280;45812;53.540;9.774;2023-04-28T02:03:02;101773.47;;;5.86;94.29
59951;BME280;45812;53.540;9.774;2023-04-28T02:05:27;101766.50;;;5.85;94.43
59951;BME280;45812;53.540;9.774;2023-04-28T02:07:53;101766.59;;;5.83;94.32
59951;BME280;45812;53.540;9.774;2023-04-28T02:10:18;101765.88;;;5.81;94.42
59951;BME280;45812;53.540;9.774;2023-04-28T02:12:43;101760.81;;;5.78;94.50
59951;BME280;45812;53.540;9.774;2023-04-28T02:15:09;101754.03;;;5.74;94.79
59951;BME280;45812;53.540;9.774;2023-04-28T02:17:34;101745.25;;;5.73;95.24
59951;BME280;45812;53.540;9.774;2023-04-28T02:19:59;101759.41;;;5.72;95.34
59951;BME280;45812;53.540;9.774;2023-04-28T02:22:25;101752.56;;;5.70;95.25
59951;BME280;45812;53.540;9.774;2023-04-28T02:24:50;101751.72;;;5.69;95.04
59951;BME280;45812;53.540;9.774;2023-04-28T02:27:15;101754.34;;;5.69;95.24
59951;BME280;45812;53.540;9.774;2023-04-28T02:29:41;101751.81;;;5.68;94.95
59951;BME280;45812;53.540;9.774;2023-04-28T02:32:06;101748.34;;;5.67;95.24
59951;BME280;45812;53.540;9.774;2023-04-28T02:34:32;101736.94;;;5.67;95.17
59951;BME280;45812;53.540;9.774;2023-04-28T02:36:57;101739.56;;;5.67;95.00
59951;BME280;45812;53.540;9.774;2023-04-28T02:39:22;101738.63;;;5.68;95.08
59951;BME280;45812;53.540;9.774;2023-04-28T02:41:51;101731.66;;;5.67;94.67
59951;BME280;45812;53.540;9.774;2023-04-28T02:44:16;101726.38;;;5.67;94.77
59951;BME280;45812;53.540;9.774;2023-04-28T02:46:41;101723.59;;;5.68;94.49
59951;BME280;45812;53.540;9.774;2023-04-28T02:49:07;101723.72;;;5.67;94.17
59951;BME280;45812;53.540;9.774;2023-04-28T02:51:32;101719.16;;;5.69;94.20
59951;BME280;45812;53.540;9.774;2023-04-28T02:53:57;101711.25;;;5.69;94.01
59951;BME280;45812;53.540;9.774;2023-04-28T02:56:23;101712.09;;;5.69;93.28
59951;BME280;45812;53.540;9.774;2023-04-28T02:58:48;101697.19;;;5.68;93.69
59951;BME280;45812;53.540;9.774;2023-04-28T03:01:13;101697.19;;;5.68;93.46
59951;BME280;45812;53.540;9.774;2023-04-28T03:03:38;101691.06;;;5.68;93.40
59951;BME280;45812;53.540;9.774;2023-04-28T03:06:04;101692.75;;;5.69;93.22
59951;BME280;45812;53.540;9.774;2023-04-28T03:08:29;101689.16;;;5.70;93.33
59951;BME280;45812;53.540;9.774;2023-04-28T03:10:55;101687.47;;;5.69;92.41
59951;BME280;45812;53.540;9.774;2023-04-28T03:13:20;101687.47;;;5.69;92.68
59951;BME280;45812;53.540;9.774;2023-04-28T03:15:46;101686.75;;;5.67;92.96
59951;BME280;45812;53.540;9.774;2023-04-28T03:18:11;101679.78;;;5.66;92.76
59951;BME280;45812;53.540;9.774;2023-04-28T03:20:36;101678.09;;;5.65;92.67
59951;BME280;45812;53.540;9.774;2023-04-28T03:23:01;101669.44;;;5.63;93.08
59951;BME280;45812;53.540;9.774;2023-04-28T03:25:27;101670.38;;;5.62;93.02
59951;BME280;45812;53.540;9.774;2023-04-28T03:27:53;101673.03;;;5.62;93.59
59951;BME280;45812;53.540;9.774;2023-04-28T03:30:18;101671.34;;;5.61;93.04
59951;BME280;45812;53.540;9.774;2023-04-28T03:32:43;101662.69;;;5.59;92.57
59951;BME280;45812;53.540;9.774;2023-04-28T03:35:09;101664.47;;;5.58;92.19
59951;BME280;45812;53.540;9.774;2023-04-28T03:37:34;101662.75;;;5.57;92.33
59951;BME280;45812;53.540;9.774;2023-04-28T03:39:59;101659.41;;;5.55;92.35
59951;BME280;45812;53.540;9.774;2023-04-28T03:42:24;101652.31;;;5.56;92.54
59951;BME280;45812;53.540;9.774;2023-04-28T03:44:49;101654.13;;;5.55;92.48
59951;BME280;45812;53.540;9.774;2023-04-28T03:47:15;101646.31;;;5.54;92.48
59951;BME280;45812;53.540;9.774;2023-04-28T03:49:40;101642.19;;;5.50;92.35
59951;BME280;45812;53.540;9.774;2023-04-28T03:52:05;101649.91;;;5.53;92.29
59951;BME280;45812;53.540;9.774;2023-04-28T03:54:31;101644.63;;;5.53;92.69
59951;BME280;45812;53.540;9.774;2023-04-28T03:56:56;101639.44;;;5.51;92.94
59951;BME280;45812;53.540;9.774;2023-04-28T03:59:22;101638.50;;;5.52;93.07
59951;BME280;45812;53.540;9.774;2023-04-28T04:01:47;101634.28;;;5.50;93.22
59951;BME280;45812;53.540;9.774;2023-04-28T04:04:13;101636.19;;;5.47;93.07
59951;BME280;45812;53.540;9.774;2023-04-28T04:06:38;101636.19;;;5.47;93.29
59951;BME280;45812;53.540;9.774;2023-04-28T04:09:03;101623.94;;;5.46;92.92
59951;BME280;45812;53.540;9.774;2023-04-28T04:11:28;101636.19;;;5.47;92.54
59951;BME280;45812;53.540;9.774;2023-04-28T04:13:54;101630.91;;;5.47;92.35
59951;BME280;45812;53.540;9.774;2023-04-28T04:16:19;101629.94;;;5.48;91.95
59951;BME280;45812;53.540;9.774;2023-04-28T04:18:45;101623.72;;;5.50;92.53
59951;BME280;45812;53.540;9.774;2023-04-28T04:21:11;101624.44;;;5.52;92.60
59951;BME280;45812;53.540;9.774;2023-04-28T04:23:36;101616.41;;;5.53;91.97
59951;BME280;45812;53.540;9.774;2023-04-28T04:26:01;101613.53;;;5.56;91.72
59951;BME280;45812;53.540;9.774;2023-04-28T04:28:26;101612.50;;;5.59;91.15
59951;BME280;45812;53.540;9.774;2023-04-28T04:30:51;101614.19;;;5.60;91.53
59951;BME280;45812;53.540;9.774;2023-04-28T04:33:17;101611.22;;;5.64;90.77
59951;BME280;45812;53.540;9.774;2023-04-28T04:35:42;101604.88;;;5.67;90.23
59951;BME280;45812;53.540;9.774;2023-04-28T04:38:07;101610.66;;;5.72;90.19
59951;BME280;45812;53.540;9.774;2023-04-28T04:40:33;101605.25;;;5.73;89.39
59951;BME280;45812;53.540;9.774;2023-04-28T04:42:58;101600.59;;;5.77;89.69
59951;BME280;45812;53.540;9.774;2023-04-28T04:45:24;101596.06;;;5.79;89.32
59951;BME280;45812;53.540;9.774;2023-04-28T04:47:49;101601.84;;;5.84;89.03
59951;BME280;45812;53.540;9.774;2023-04-28T04:50:14;101604.13;;;5.89;88.72
59951;BME280;45812;53.540;9.774;2023-04-28T04:52:39;101602.13;;;5.92;88.58
59951;BME280;45812;53.540;9.774;2023-04-28T04:55:05;101600.97;;;5.96;88.57
59951;BME280;45812;53.540;9.774;2023-04-28T04:57:31;101598.09;;;5.99;88.22
59951;BME280;45812;53.540;9.774;2023-04-28T04:59:56;101599.56;;;6.03;88.13
59951;BME280;45812;53.540;9.774;2023-04-28T05:02:21;101593.06;;;6.07;88.63
59951;BME280;45812;53.540;9.774;2023-04-28T05:04:46;101592.97;;;6.09;88.06
59951;BME280;45812;53.540;9.774;2023-04-28T05:07:12;101594.41;;;6.13;88.39
59951;BME280;45812;53.540;9.774;2023-04-28T05:09:37;101590.59;;;6.17;88.76
59951;BME280;45812;53.540;9.774;2023-04-28T05:12:03;101588.31;;;6.24;88.42
59951;BME280;45812;53.540;9.774;2023-04-28T05:14:28;101583.88;;;6.24;88.18
59951;BME280;45812;53.540;9.774;2023-04-28T05:16:53;101583.53;;;6.29;87.64
59951;BME280;45812;53.540;9.774;2023-04-28T05:19:19;101573.47;;;6.34;87.15
59951;BME280;45812;53.540;9.774;2023-04-28T05:21:44;101569.75;;;6.36;86.77
59951;BME280;45812;53.540;9.774;2023-04-28T05:24:11;101570.84;;;6.45;86.28
59951;BME280;45812;53.540;9.774;2023-04-28T05:26:37;101573.97;;;6.50;85.70
59951;BME280;45812;53.540;9.774;2023-04-28T05:29:02;101570.88;;;6.56;85.37
59951;BME280;45812;53.540;9.774;2023-04-28T05:31:27;101565.09;;;6.62;85.00
59951;BME280;45812;53.540;9.774;2023-04-28T05:33:53;101563.88;;;6.66;84.18
59951;BME280;45812;53.540;9.774;2023-04-28T05:36:18;101555.50;;;6.73;84.29
59951;BME280;45812;53.540;9.774;2023-04-28T05:38:43;101551.28;;;6.81;83.92
59951;BME280;45812;53.540;9.774;2023-04-28T05:41:09;101552.59;;;6.87;83.94
59951;BME280;45812;53.540;9.774;2023-04-28T05:43:34;101546.13;;;6.91;83.32
59951;BME280;45812;53.540;9.774;2023-04-28T05:46:00;101543.94;;;6.96;82.66
59951;BME280;45812;53.540;9.774;2023-04-28T05:48:25;101552.94;;;7.05;81.84
59951;BME280;45812;53.540;9.774;2023-04-28T05:50:50;101548.03;;;7.11;81.09
59951;BME280;45812;53.540;9.774;2023-04-28T05:53:16;101555.22;;;7.20;80.27
59951;BME280;45812;53.540;9.774;2023-04-28T05:55:41;101551.00;;;7.29;79.08
59951;BME280;45812;53.540;9.774;2023-04-28T05:58:06;101547.88;;;7.35;78.43
59951;BME280;45812;53.540;9.774;2023-04-28T06:00:32;101548.94;;;7.44;77.36
59951;BME280;45812;53.540;9.774;2023-04-28T06:02:58;101550.38;;;7.48;75.67
59951;BME280;45812;53.540;9.774;2023-04-28T06:05:24;101546.38;;;7.53;75.21
59951;BME280;45812;53.540;9.774;2023-04-28T06:07:50;101547.53;;;7.60;75.34
59951;BME280;45812;53.540;9.774;2023-04-28T06:10:15;101541.19;;;7.63;73.03
59951;BME280;45812;53.540;9.774;2023-04-28T06:12:40;101542.47;;;7.69;72.01
59951;BME280;45812;53.540;9.774;2023-04-28T06:15:06;101548.81;;;7.77;70.64
59951;BME280;45812;53.540;9.774;2023-04-28T06:17:31;101551.81;;;7.84;71.67
59951;BME280;45812;53.540;9.774;2023-04-28T06:19:57;101546.59;;;7.94;73.01
59951;BME280;45812;53.540;9.774;2023-04-28T06:22:26;101542.72;;;7.98;70.06
59951;BME280;45812;53.540;9.774;2023-04-28T06:24:51;101536.91;;;8.04;69.02
59951;BME280;45812;53.540;9.774;2023-04-28T06:27:17;101531.94;;;8.10;70.12
59951;BME280;45812;53.540;9.774;2023-04-28T06:29:43;101532.25;;;8.17;68.96
59951;BME280;45812;53.540;9.774;2023-04-28T06:32:08;101534.41;;;8.23;69.39
59951;BME280;45812;53.540;9.774;2023-04-28T06:34:34;101532.19;;;8.28;68.91
59951;BME280;45812;53.540;9.774;2023-04-28T06:36:59;101530.94;;;8.32;67.32
59951;BME280;45812;53.540;9.774;2023-04-28T06:39:25;101526.25;;;8.36;67.63
59951;BME280;45812;53.540;9.774;2023-04-28T06:41:51;101527.44;;;8.43;67.17
59951;BME280;45812;53.540;9.774;2023-04-28T06:44:16;101521.16;;;8.44;66.96
59951;BME280;45812;53.540;9.774;2023-04-28T06:46:41;101527.72;;;8.49;67.36
59951;BME280;45812;53.540;9.774;2023-04-28T06:49:07;101518.53;;;8.54;67.48
59951;BME280;45812;53.540;9.774;2023-04-28T06:51:32;101523.59;;;8.57;67.54
59951;BME280;45812;53.540;9.774;2023-04-28T06:53:58;101528.63;;;8.60;66.11
59951;BME280;45812;53.540;9.774;2023-04-28T06:56:24;101530.75;;;8.66;66.52
59951;BME280;45812;53.540;9.774;2023-04-28T06:58:49;101515.97;;;8.73;66.15
59951;BME280;45812;53.540;9.774;2023-04-28T07:01:15;101520.91;;;8.77;64.16
59951;BME280;45812;53.540;9.774;2023-04-28T07:03:40;101517.84;;;8.82;65.45
59951;BME280;45812;53.540;9.774;2023-04-28T07:06:06;101508.06;;;8.92;65.94
59951;BME280;45812;53.540;9.774;2023-04-28T07:08:31;101507.00;;;9.04;65.09
59951;BME280;45812;53.540;9.774;2023-04-28T07:10:56;101507.88;;;9.15;65.18
59951;BME280;45812;53.540;9.774;2023-04-28T07:13:21;101504.13;;;9.27;63.86
59951;BME280;45812;53.540;9.774;2023-04-28T07:15:47;101505.84;;;9.37;64.19
59951;BME280;45812;53.540;9.774;2023-04-28T07:18:12;101506.41;;;9.51;62.44
59951;BME280;45812;53.540;9.774;2023-04-28T07:20:37;101500.81;;;9.63;63.05
59951;BME280;45812;53.540;9.774;2023-04-28T07:23:02;101501.81;;;9.72;61.94
59951;BME280;45812;53.540;9.774;2023-04-28T07:25:28;101499.13;;;9.82;62.80
59951;BME280;45812;53.540;9.774;2023-04-28T07:27:53;101492.00;;;9.92;62.00
59951;BME280;45812;53.540;9.774;2023-04-28T07:30:19;101495.06;;;10.07;62.34
59951;BME280;45812;53.540;9.774;2023-04-28T07:32:44;101491.97;;;10.21;62.10
59951;BME280;45812;53.540;9.774;2023-04-28T07:35:09;101495.56;;;10.39;61.95
59951;BME280;45812;53.540;9.774;2023-04-28T07:37:36;101490.31;;;10.57;61.13
59951;BME280;45812;53.540;9.774;2023-04-28T07:40:01;101488.41;;;10.77;60.62
59951;BME280;45812;53.540;9.774;2023-04-28T07:42:26;101498.16;;;10.96;56.38
59951;BME280;45812;53.540;9.774;2023-04-28T07:44:51;101491.78;;;11.06;53.24
59951;BME280;45812;53.540;9.774;2023-04-28T07:47:17;101503.78;;;11.20;52.64
59951;BME280;45812;53.540;9.774;2023-04-28T07:49:42;101491.63;;;11.35;52.46
59951;BME280;45812;53.540;9.774;2023-04-28T07:52:07;101491.00;;;11.59;53.42
59951;BME280;45812;53.540;9.774;2023-04-28T07:54:33;101498.41;;;11.83;51.33
59951;BME280;45812;53.540;9.774;2023-04-28T07:56:59;101484.06;;;12.02;50.17
59951;BME280;45812;53.540;9.774;2023-04-28T07:59:25;101479.72;;;12.27;50.92
59951;BME280;45812;53.540;9.774;2023-04-28T08:01:50;101476.91;;;12.54;50.19
59951;BME280;45812;53.540;9.774;2023-04-28T08:04:15;101474.16;;;12.72;48.26
59951;BME280;45812;53.540;9.774;2023-04-28T08:06:41;101468.03;;;12.88;47.26
59951;BME280;45812;53.540;9.774;2023-04-28T08:09:06;101472.94;;;13.09;48.44
59951;BME280;45812;53.540;9.774;2023-04-28T08:11:32;101465.84;;;13.25;47.51
59951;BME280;45812;53.540;9.774;2023-04-28T08:13:58;101460.19;;;13.45;46.40
59951;BME280;45812;53.540;9.774;2023-04-28T08:16:27;101459.03;;;13.63;46.84
59951;BME280;45812;53.540;9.774;2023-04-28T08:18:53;101451.03;;;13.80;45.34
59951;BME280;45812;53.540;9.774;2023-04-28T08:21:18;101448.84;;;14.00;45.77
59951;BME280;45812;53.540;9.774;2023-04-28T08:23:44;101449.28;;;14.11;44.28
59951;BME280;45812;53.540;9.774;2023-04-28T08:26:10;101453.31;;;14.23;44.52
59951;BME280;45812;53.540;9.774;2023-04-28T08:28:36;101452.44;;;14.39;44.14
59951;BME280;45812;53.540;9.774;2023-04-28T08:31:02;101446.91;;;14.49;43.99
59951;BME280;45812;53.540;9.774;2023-04-28T08:33:29;101449.22;;;14.60;44.86
59951;BME280;45812;53.540;9.774;2023-04-28T08:35:54;101450.00;;;14.69;44.11
59951;BME280;45812;53.540;9.774;2023-04-28T08:38:20;101437.78;;;14.74;43.52
59951;BME280;45812;53.540;9.774;2023-04-28T08:40:48;101446.25;;;14.86;42.99
59951;BME280;45812;53.540;9.774;2023-04-28T08:43:13;101448.84;;;15.02;43.63
59951;BME280;45812;53.540;9.774;2023-04-28T08:45:41;101441.13;;;15.07;42.24
59951;BME280;45812;53.540;9.774;2023-04-28T08:48:19;101437.19;;;15.18;41.93
59951;BME280;45812;53.540;9.774;2023-04-28T08:50:48;101440.31;;;15.30;42.85
59951;BME280;45812;53.540;9.774;2023-04-28T08:53:19;101433.75;;;15.32;41.82
59951;BME280;45812;53.540;9.774;2023-04-28T08:55:45;101444.19;;;15.50;42.59
59951;BME280;45812;53.540;9.774;2023-04-28T08:58:11;101427.81;;;15.68;41.91
59951;BME280;45812;53.540;9.774;2023-04-28T09:00:37;101437.28;;;15.79;40.80
59951;BME280;45812;53.540;9.774;2023-04-28T09:03:02;101433.78;;;15.93;41.34
59951;BME280;45812;53.540;9.774;2023-04-28T09:05:28;101422.31;;;15.99;39.84
59951;BME280;45812;53.540;9.774;2023-04-28T09:07:53;101425.75;;;16.08;40.24
59951;BME280;45812;53.540;9.774;2023-04-28T09:10:23;101422.78;;;16.17;40.31
59951;BME280;45812;53.540;9.774;2023-04-28T09:12:51;101423.38;;;16.27;40.20
59951;BME280;45812;53.540;9.774;2023-04-28T09:15:37;101409.19;;;16.33;40.16
59951;BME280;45812;53.540;9.774;2023-04-28T09:18:04;101410.13;;;16.41;39.61
59951;BME280;45812;53.540;9.774;2023-04-28T09:20:31;101416.03;;;16.51;39.90
59951;BME280;45812;53.540;9.774;2023-04-28T09:23:12;101412.63;;;16.72;39.93
59951;BME280;45812;53.540;9.774;2023-04-28T09:25:37;101408.25;;;16.85;40.32
59951;BME280;45812;53.540;9.774;2023-04-28T09:28:20;101409.38;;;17.12;39.41
59951;BME280;45812;53.540;9.774;2023-04-28T09:30:46;101411.25;;;17.33;38.72
59951;BME280;45812;53.540;9.774;2023-04-28T09:33:12;101407.19;;;17.44;38.35
59951;BME280;45812;53.540;9.774;2023-04-28T09:35:38;101408.78;;;17.60;38.28
59951;BME280;45812;53.540;9.774;2023-04-28T09:38:03;101385.97;;;17.77;37.14
59951;BME280;45812;53.540;9.774;2023-04-28T09:40:29;101386.09;;;17.90;37.17
59951;BME280;45812;53.540;9.774;2023-04-28T09:42:54;101379.16;;;18.09;36.95
59951;BME280;45812;53.540;9.774;2023-04-28T09:45:20;101377.63;;;18.34;37.58
59951;BME280;45812;53.540;9.774;2023-04-28T09:47:46;101377.09;;;18.52;36.95
59951;BME280;45812;53.540;9.774;2023-04-28T09:50:13;101374.09;;;18.68;37.11
59951;BME280;45812;53.540;9.774;2023-04-28T09:52:42;101379.34;;;18.90;37.16
59951;BME280;45812;53.540;9.774;2023-04-28T09:55:09;101367.97;;;19.08;35.84
59951;BME280;45812;53.540;9.774;2023-04-28T09:57:36;101361.56;;;19.15;35.71
59951;BME280;45812;53.540;9.774;2023-04-28T10:00:03;101360.53;;;19.23;35.50
59951;BME280;45812;53.540;9.774;2023-04-28T10:02:31;101357.19;;;19.27;33.95
59951;BME280;45812;53.540;9.774;2023-04-28T10:04:58;101357.41;;;19.26;34.04
59951;BME280;45812;53.540;9.774;2023-04-28T10:07:23;101343.91;;;19.26;35.16
59951;BME280;45812;53.540;9.774;2023-04-28T10:09:49;101342.88;;;19.33;35.44
59951;BME280;45812;53.540;9.774;2023-04-28T10:12:16;101346.19;;;19.49;34.89
59951;BME280;45812;53.540;9.774;2023-04-28T10:14:42;101331.47;;;19.71;34.75
59951;BME280;45812;53.540;9.774;2023-04-28T10:17:09;101332.06;;;19.93;33.63
59951;BME280;45812;53.540;9.774;2023-04-28T10:19:35;101320.16;;;20.07;33.06
59951;BME280;45812;53.540;9.774;2023-04-28T10:27:37;101322.38;;;20.30;32.62
59951;BME280;45812;53.540;9.774;2023-04-28T10:32:36;101323.38;;;20.42;32.41
59951;BME280;45812;53.540;9.774;2023-04-28T10:40:47;101319.66;;;21.13;31.72
59951;BME280;45812;53.540;9.774;2023-04-28T10:48:23;101309.09;;;20.73;31.59
59951;BME280;45812;53.540;9.774;2023-04-28T10:56:20;101297.38;;;20.48;32.70
59951;BME280;45812;53.540;9.774;2023-04-28T11:06:29;101303.28;;;20.70;31.75
59951;BME280;45812;53.540;9.774;2023-04-28T11:16:55;101291.94;;;20.86;31.85
59951;BME280;45812;53.540;9.774;2023-04-28T11:19:25;101290.53;;;20.77;31.60
59951;BME280;45812;53.540;9.774;2023-04-28T11:21:51;101289.63;;;20.58;31.73
59951;BME280;45812;53.540;9.774;2023-04-28T11:24:17;101281.97;;;20.48;32.09
59951;BME280;45812;53.540;9.774;2023-04-28T11:26:43;101278.00;;;20.51;30.83
59951;BME280;45812;53.540;9.774;2023-04-28T11:29:09;101276.00;;;20.71;31.45
59951;BME280;45812;53.540;9.774;2023-04-28T11:31:35;101280.91;;;20.88;31.55
59951;BME280;45812;53.540;9.774;2023-04-28T11:34:06;101273.13;;;20.98;32.02
59951;BME280;45812;53.540;9.774;2023-04-28T11:36:39;101268.13;;;21.20;31.55
59951;BME280;45812;53.540;9.774;2023-04-28T11:39:09;101269.19;;;21.25;30.93
59951;BME280;45812;53.540;9.774;2023-04-28T11:41:37;101273.09;;;21.29;30.99
59951;BME280;45812;53.540;9.774;2023-04-28T11:44:12;101263.38;;;21.22;30.98
59951;BME280;45812;53.540;9.774;2023-04-28T11:46:50;101270.03;;;20.94;30.98
59951;BME280;45812;53.540;9.774;2023-04-28T11:49:20;101274.66;;;20.55;30.90
59951;BME280;45812;53.540;9.774;2023-04-28T11:51:46;101263.56;;;20.19;31.25
59951;BME280;45812;53.540;9.774;2023-04-28T11:54:19;101261.38;;;19.96;32.31
59951;BME280;45812;53.540;9.774;2023-04-28T11:56:45;101258.38;;;19.59;33.01
59951;BME280;45812;53.540;9.774;2023-04-28T11:59:11;101266.03;;;19.43;32.86
59951;BME280;45812;53.540;9.774;2023-04-28T12:01:57;101258.16;;;19.28;33.87
59951;BME280;45812;53.540;9.774;2023-04-28T12:04:33;101251.53;;;19.17;34.84
59951;BME280;45812;53.540;9.774;2023-04-28T12:07:15;101250.28;;;19.00;34.83
59951;BME280;45812;53.540;9.774;2023-04-28T12:09:44;101256.50;;;18.87;35.55
59951;BME280;45812;53.540;9.774;2023-04-28T12:12:13;101246.31;;;18.63;34.83
59951;BME280;45812;53.540;9.774;2023-04-28T12:14:59;101240.84;;;18.50;35.46
59951;BME280;45812;53.540;9.774;2023-04-28T12:17:32;101234.38;;;18.37;35.64
59951;BME280;45812;53.540;9.774;2023-04-28T12:20:02;101237.88;;;18.25;35.65
59951;BME280;45812;53.540;9.774;2023-04-28T12:22:29;101229.94;;;18.10;35.94
59951;BME280;45812;53.540;9.774;2023-04-28T12:25:10;101230.31;;;18.00;36.67
59951;BME280;45812;53.540;9.774;2023-04-28T12:27:36;101223.84;;;17.88;37.00
59951;BME280;45812;53.540;9.774;2023-04-28T12:32:46;101222.75;;;17.76;36.71
59951;BME280;45812;53.540;9.774;2023-04-28T12:35:12;101225.22;;;17.71;36.16
59951;BME280;45812;53.540;9.774;2023-04-28T12:37:38;101219.81;;;17.71;36.75
59951;BME280;45812;53.540;9.774;2023-04-28T12:40:07;101217.75;;;17.73;37.19
59951;BME280;45812;53.540;9.774;2023-04-28T12:42:33;101216.09;;;17.72;36.57
59951;BME280;45812;53.540;9.774;2023-04-28T12:44:58;101214.00;;;17.67;36.54
59951;BME280;45812;53.540;9.774;2023-04-28T12:47:24;101219.47;;;17.52;37.07
59951;BME280;45812;53.540;9.774;2023-04-28T12:49:49;101214.88;;;17.46;37.24
59951;BME280;45812;53.540;9.774;2023-04-28T12:52:17;101211.13;;;17.41;38.01
59951;BME280;45812;53.540;9.774;2023-04-28T12:54:42;101212.94;;;17.34;38.58
59951;BME280;45812;53.540;9.774;2023-04-28T12:57:11;101209.56;;;17.25;37.56
59951;BME280;45812;53.540;9.774;2023-04-28T12:59:37;101200.84;;;17.23;38.30
59951;BME280;45812;53.540;9.774;2023-04-28T13:02:02;101204.81;;;17.27;38.36
59951;BME280;45812;53.540;9.774;2023-04-28T13:04:28;101194.06;;;17.27;38.97
59951;BME280;45812;53.540;9.774;2023-04-28T13:06:53;101198.41;;;17.28;38.59
59951;BME280;45812;53.540;9.774;2023-04-28T13:09:18;101203.78;;;17.28;39.16
59951;BME280;45812;53.540;9.774;2023-04-28T13:11:43;101206.75;;;17.33;39.36
59951;BME280;45812;53.540;9.774;2023-04-28T13:14:09;101195.38;;;17.38;39.35
59951;BME280;45812;53.540;9.774;2023-04-28T13:16:34;101192.09;;;17.42;39.49
59951;BME280;45812;53.540;9.774;2023-04-28T13:19:00;101194.16;;;17.47;39.47
59951;BME280;45812;53.540;9.774;2023-04-28T13:21:26;101186.16;;;17.53;39.14
59951;BME280;45812;53.540;9.774;2023-04-28T13:23:55;101177.50;;;17.65;38.98
59951;BME280;45812;53.540;9.774;2023-04-28T13:26:21;101163.00;;;17.66;38.88
59951;BME280;45812;53.540;9.774;2023-04-28T13:28:50;101163.50;;;17.69;37.96
59951;BME280;45812;53.540;9.774;2023-04-28T13:31:16;101155.84;;;17.73;38.23
59951;BME280;45812;53.540;9.774;2023-04-28T13:33:41;101162.28;;;17.78;38.51